Time;durP1;ratioP1;P1;durP2;ratioP2;P2;SDS_P1;SDS_P2;PMS_P1;PMS_P2;Temp;Humidity;BMP_temperature;BMP_pressure;BME280_temperature;BME280_humidity;BME280_pressure;Samples;Min_cycle;Max_cycle;Signal;HPM_P1;HPM_P2
2022/12/17 13:08:36;;;;;;;38.00;22.37;;;;;;;-1.06;85.83;98368.03;6290461;28;20235;-45
2022/12/17 13:11:40;;;;;;;36.47;23.30;;;;;;;-1.03;86.72;98365.38;6291365;28;20704;-43
2022/12/17 13:14:57;;;;;;;39.53;22.40;;;;;;;-1.02;86.91;98371.41;6290766;28;20264;-43
2022/12/17 13:18:25;;;;;;;46.30;24.03;;;;;;;-1.06;86.21;98370.59;6289372;28;20233;-43
2022/12/17 13:21:30;;;;;;;37.30;21.93;;;;;;;-1.03;86.74;98385.22;6288255;28;20600;-43
2022/12/17 13:24:32;;;;;;;36.93;22.70;;;;;;;-1.05;85.84;98398.22;6292460;28;20582;-43
2022/12/17 13:27:34;;;;;;;36.00;22.07;;;;;;;-1.04;86.08;98396.47;6290316;28;20570;-44
2022/12/17 13:30:37;;;;;;;36.53;21.63;;;;;;;-1.07;86.08;98417.25;6291302;28;20294;-43
2022/12/17 13:33:50;;;;;;;42.20;22.97;;;;;;;-1.09;86.50;98401.75;6292411;28;20283;-43
2022/12/17 13:37:06;;;;;;;35.00;21.33;;;;;;;-1.13;87.17;98413.09;6289609;28;20593;-43
2022/12/17 13:40:27;;;;;;;39.07;23.23;;;;;;;-1.11;87.25;98421.69;6289096;28;20368;-43
2022/12/17 13:43:45;;;;;;;38.47;22.53;;;;;;;-1.10;87.26;98427.72;6293316;28;20258;-43
2022/12/17 13:46:49;;;;;;;41.07;25.17;;;;;;;-1.14;86.92;98445.03;6292173;28;20230;-43
2022/12/17 13:49:54;;;;;;;42.40;24.63;;;;;;;-1.14;87.50;98452.81;6296096;28;20221;-44
2022/12/17 13:53:16;;;;;;;40.10;23.60;;;;;;;-1.17;87.23;98465.81;6292265;28;20579;-44
2022/12/17 13:56:27;;;;;;;40.70;22.43;;;;;;;-1.19;87.88;98473.59;6288289;28;20317;-43
2022/12/17 13:59:29;;;;;;;40.07;23.53;;;;;;;-1.18;87.63;98469.28;6288326;28;20222;-43
2022/12/17 14:02:36;;;;;;;44.13;25.33;;;;;;;-1.22;87.64;98475.44;6283925;28;20222;-43
2022/12/17 14:05:43;;;;;;;40.40;24.60;;;;;;;-1.23;87.61;98482.34;6290612;28;20308;-44
2022/12/17 14:08:46;;;;;;;46.60;24.53;;;;;;;-1.23;88.14;98487.53;6289959;28;20223;-43
2022/12/17 14:15:23;;;;;;;43.77;22.97;;;;;;;-1.27;87.93;98509.16;6294804;28;20740;-43
2022/12/17 14:18:25;;;;;;;37.73;23.07;;;;;;;-1.27;88.14;98506.56;6274302;28;20242;-43
2022/12/17 14:21:28;;;;;;;37.40;23.60;;;;;;;-1.28;87.98;98516.97;6290526;28;20320;-43
2022/12/17 14:24:30;;;;;;;37.70;22.83;;;;;;;-1.30;88.29;98514.44;6293309;28;20266;-43
2022/12/17 14:27:35;;;;;;;37.13;22.50;;;;;;;-1.30;88.47;98523.94;6288475;28;20219;-43
2022/12/17 14:30:41;;;;;;;38.70;21.90;;;;;;;-1.31;88.34;98519.63;6291941;28;20214;-44
2022/12/17 14:34:10;;;;;;;40.50;23.90;;;;;;;-1.32;88.34;98521.38;6264916;28;20227;-43
2022/12/17 14:37:19;;;;;;;36.90;20.60;;;;;;;-1.31;87.96;98517.91;6267365;28;20235;-44
2022/12/17 14:40:23;;;;;;;36.50;21.70;;;;;;;-1.31;87.71;98527.41;6265377;28;20300;-44
2022/12/17 14:43:28;;;;;;;35.90;20.47;;;;;;;-1.34;87.14;98530.91;6266407;28;20238;-43
2022/12/17 14:46:33;;;;;;;33.13;20.63;;;;;;;-1.37;87.52;98528.34;6262884;28;20231;-43
2022/12/17 14:49:45;;;;;;;35.20;20.93;;;;;;;-1.40;87.48;98536.19;6265980;28;20237;-43
2022/12/17 14:52:59;;;;;;;32.13;17.87;;;;;;;-1.41;87.02;98531.03;6268114;28;20218;-43
2022/12/17 14:56:01;;;;;;;36.03;19.33;;;;;;;-1.41;87.51;98531.03;6270098;28;20321;-43
2022/12/17 14:59:03;;;;;;;31.33;19.07;;;;;;;-1.41;87.58;98541.41;6269778;28;20226;-43
2022/12/17 15:02:09;;;;;;;33.80;18.67;;;;;;;-1.41;87.55;98552.59;6268419;28;20341;-44
2022/12/17 15:05:14;;;;;;;32.97;18.77;;;;;;;-1.44;87.05;98551.81;6268385;28;20300;-45
2022/12/17 15:08:16;;;;;;;32.30;18.87;;;;;;;-1.44;86.90;98544.88;6268470;28;20804;-44
2022/12/17 15:11:20;;;;;;;33.83;19.47;;;;;;;-1.46;87.14;98554.41;6267549;28;20276;-44
2022/12/17 15:14:23;;;;;;;31.87;18.37;;;;;;;-1.49;86.88;98552.72;6268211;28;20227;-44
2022/12/17 15:17:25;;;;;;;26.50;18.23;;;;;;;-1.51;86.82;98557.09;6267493;28;20605;-44
2022/12/17 15:20:27;;;;;;;32.40;18.87;;;;;;;-1.53;86.96;98568.34;6271232;28;20624;-45
2022/12/17 15:23:30;;;;;;;34.40;19.20;;;;;;;-1.55;87.10;98562.34;6268532;28;20231;-44
2022/12/17 15:26:32;;;;;;;32.13;18.40;;;;;;;-1.54;87.05;98571.81;6269371;28;20227;-46
2022/12/17 15:29:34;;;;;;;32.80;19.87;;;;;;;-1.56;87.09;98568.41;6267696;28;20226;-44
2022/12/17 15:32:36;;;;;;;34.87;20.30;;;;;;;-1.56;87.27;98579.59;6282246;28;20234;-46
2022/12/17 15:35:39;;;;;;;35.90;20.17;;;;;;;-1.58;87.39;98576.19;6276958;28;20230;-45
2022/12/17 15:38:42;;;;;;;31.50;18.83;;;;;;;-1.61;87.12;98589.22;6291749;28;20302;-47
2022/12/17 15:45:05;;;;;;;34.93;20.37;;;;;;;-1.62;87.33;98597.84;6289705;28;20698;-44
2022/12/17 15:48:09;;;;;;;33.87;19.97;;;;;;;-1.64;87.50;98594.41;6290452;28;20218;-45
2022/12/17 15:51:12;;;;;;;34.73;19.73;;;;;;;-1.64;87.11;98603.91;6294314;28;20721;-45
2022/12/17 15:54:20;;;;;;;34.17;19.70;;;;;;;-1.69;87.09;98596.22;6272086;28;20223;-43
2022/12/17 15:57:22;;;;;;;31.87;20.13;;;;;;;-1.72;87.41;98603.19;6292164;28;20244;-45
2022/12/17 16:00:25;;;;;;;34.83;20.30;;;;;;;-1.78;87.65;98598.97;6290567;28;20230;-44
2022/12/17 16:03:27;;;;;;;34.37;21.00;;;;;;;-1.82;87.20;98599.06;6289785;28;20301;-46
2022/12/17 16:06:30;;;;;;;37.57;20.57;;;;;;;-1.90;87.45;98597.41;6291357;28;20736;-45
2022/12/17 16:09:32;;;;;;;33.20;19.60;;;;;;;-1.94;87.96;98616.47;6292409;28;20243;-44
2022/12/17 16:12:35;;;;;;;39.77;22.80;;;;;;;-1.92;87.87;98621.63;6288807;28;20222;-44
2022/12/17 16:15:38;;;;;;;38.27;20.77;;;;;;;-1.88;88.17;98629.28;6291303;28;20280;-45
2022/12/17 16:18:41;;;;;;;35.00;21.00;;;;;;;-1.83;87.70;98639.59;6290094;28;20222;-45
2022/12/17 16:21:43;;;;;;;38.83;21.73;;;;;;;-1.81;88.06;98640.44;6287922;28;20226;-46
2022/12/17 16:24:48;;;;;;;35.83;21.50;;;;;;;-1.79;87.59;98637.78;6291965;28;20232;-43
2022/12/17 16:27:50;;;;;;;35.80;20.97;;;;;;;-1.79;87.92;98636.06;6288178;28;20222;-45
2022/12/17 16:31:00;;;;;;;40.53;21.90;;;;;;;-1.78;88.02;98642.94;6273584;28;20756;-44
2022/12/17 16:34:07;;;;;;;38.17;22.10;;;;;;;-1.77;87.90;98648.97;6284241;28;20598;-44
2022/12/17 16:37:10;;;;;;;36.37;22.50;;;;;;;-1.79;88.22;98653.31;6275340;28;20226;-44
2022/12/17 16:40:13;;;;;;;40.20;23.13;;;;;;;-1.81;88.72;98653.34;6279126;28;20226;-45
2022/12/17 16:43:15;;;;;;;40.60;23.07;;;;;;;-1.79;88.32;98661.94;6278429;28;20615;-47
2022/12/17 16:46:35;;;;;;;38.67;22.70;;;;;;;-1.78;88.31;98663.63;6277891;28;20360;-45
2022/12/17 16:49:38;;;;;;;41.13;22.87;;;;;;;-1.78;88.14;98665.38;6276195;28;20231;-44
2022/12/17 16:52:40;;;;;;;37.93;21.87;;;;;;;-1.78;87.72;98676.56;6259708;28;20230;-47
2022/12/17 16:55:45;;;;;;;41.87;23.60;;;;;;;-1.77;88.22;98674.84;6277744;28;20252;-44
2022/12/17 16:58:49;;;;;;;41.13;22.97;;;;;;;-1.79;88.41;98687.78;6277316;28;20748;-44
2022/12/17 17:01:51;;;;;;;46.03;24.43;;;;;;;-1.78;88.22;98683.47;6277851;28;20238;-45
2022/12/17 17:04:53;;;;;;;43.23;23.83;;;;;;;-1.79;88.59;98681.75;6277430;28;20226;-45
2022/12/17 17:07:56;;;;;;;43.07;24.80;;;;;;;-1.79;88.04;98680.03;6277668;28;20288;-43
2022/12/17 17:11:10;;;;;;;42.50;24.80;;;;;;;-1.79;88.34;98687.78;6274101;28;20226;-46
2022/12/17 17:14:12;;;;;;;39.47;23.57;;;;;;;-1.82;87.95;98693.03;6278565;28;20253;-45
2022/12/17 17:17:14;;;;;;;43.77;24.00;;;;;;;-1.82;88.37;98694.78;6261097;28;20828;-44
2022/12/17 17:20:16;;;;;;;45.53;25.10;;;;;;;-1.88;88.43;98687.94;6273457;28;20397;-44
2022/12/17 17:23:18;;;;;;;44.80;25.33;;;;;;;-1.89;88.69;98710.34;6259854;28;20248;-43
2022/12/17 17:26:21;;;;;;;43.80;24.10;;;;;;;-1.89;88.74;98706.91;6259539;28;20223;-45
2022/12/17 17:29:24;;;;;;;43.70;25.60;;;;;;;-1.90;89.12;98711.22;6277192;28;20329;-46
2022/12/17 17:32:26;;;;;;;46.47;25.70;;;;;;;-1.88;89.05;98718.97;6281347;28;20230;-44
2022/12/17 17:35:30;;;;;;;43.30;25.27;;;;;;;-1.86;89.17;98719.81;6288768;28;20230;-44
2022/12/17 17:38:36;;;;;;;44.50;25.33;;;;;;;-1.86;89.34;98725.84;6291124;28;20225;-45
2022/12/17 17:41:39;;;;;;;49.60;26.57;;;;;;;-1.86;89.54;98727.56;6291007;28;20352;-43
2022/12/17 17:44:41;;;;;;;46.83;25.77;;;;;;;-1.87;89.43;98729.31;6289251;28;20557;-44
2022/12/17 17:47:43;;;;;;;44.13;25.50;;;;;;;-1.88;89.84;98730.19;6271780;28;20233;-44
2022/12/17 17:51:05;;;;;;;43.80;25.07;;;;;;;-1.88;89.87;98726.72;6292155;28;20214;-44
2022/12/17 17:54:08;;;;;;;46.03;26.13;;;;;;;-1.90;89.90;98739.69;6271123;28;20779;-44
2022/12/17 17:57:15;;;;;;;46.40;25.83;;;;;;;-1.91;89.90;98755.25;6290243;28;20713;-43
2022/12/17 18:00:17;;;;;;;49.50;27.37;;;;;;;-1.91;90.63;98755.25;6290277;28;20209;-44
2022/12/17 18:03:19;;;;;;;49.87;28.07;;;;;;;-1.93;90.76;98755.28;6290071;28;20342;-45
2022/12/17 18:06:22;;;;;;;45.97;26.53;;;;;;;-1.97;90.26;98757.91;6287506;28;20229;-44
2022/12/17 18:09:25;;;;;;;50.93;29.00;;;;;;;-1.96;91.05;98764.78;6291038;28;20274;-44
2022/12/17 18:15:48;;;;;;;45.30;26.07;;;;;;;-1.99;90.82;98759.66;6286700;28;20605;-44
2022/12/17 18:18:53;;;;;;;47.50;26.90;;;;;;;-2.00;90.99;98758.81;6289820;28;20412;-44
2022/12/17 18:21:56;;;;;;;41.67;23.43;;;;;;;-2.03;89.95;98766.63;6290981;28;20237;-43
2022/12/17 18:24:59;;;;;;;37.33;22.50;;;;;;;-2.06;89.35;98769.22;6295166;28;20225;-44
2022/12/17 18:28:02;;;;;;;39.53;21.70;;;;;;;-2.06;88.99;98770.94;6284753;28;20600;-43
2022/12/17 18:31:15;;;;;;;41.70;22.63;;;;;;;-2.05;89.76;98778.69;6299298;28;20320;-45
2022/12/17 18:34:20;;;;;;;37.17;20.27;;;;;;;-2.07;89.33;98782.16;6294116;28;20234;-44
2022/12/17 18:37:22;;;;;;;28.17;17.87;;;;;;;-2.10;89.16;98784.81;6292151;28;20627;-43
2022/12/17 18:40:24;;;;;;;31.20;18.90;;;;;;;-2.12;88.28;98786.56;6293973;28;20241;-43
2022/12/17 18:43:33;;;;;;;33.70;18.23;;;;;;;-2.12;88.30;98794.31;6274748;28;20237;-44
2022/12/17 18:46:36;;;;;;;31.43;17.93;;;;;;;-2.20;88.59;98797.00;6294384;28;20255;-44
2022/12/17 18:49:39;;;;;;;29.80;17.33;;;;;;;-2.28;88.92;98798.78;6294760;28;20758;-44
2022/12/17 18:52:41;;;;;;;29.93;17.23;;;;;;;-2.35;89.13;98804.91;6292704;28;20252;-44
2022/12/17 18:55:43;;;;;;;25.47;15.87;;;;;;;-2.43;89.37;98815.34;6295580;28;20225;-43
2022/12/17 18:58:45;;;;;;;28.07;15.47;;;;;;;-2.47;89.39;98817.94;6294046;28;20700;-44
2022/12/17 19:01:48;;;;;;;25.97;14.70;;;;;;;-2.52;89.56;98823.19;6293888;28;20322;-44
2022/12/17 19:04:51;;;;;;;27.57;16.20;;;;;;;-2.55;89.52;98832.69;6288362;28;20313;-44
2022/12/17 19:07:53;;;;;;;27.27;15.23;;;;;;;-2.60;89.83;98837.91;6291814;28;20233;-44
2022/12/17 19:11:01;;;;;;;26.97;16.67;;;;;;;-2.63;89.80;98843.97;6292912;28;20267;-44
2022/12/17 19:14:04;;;;;;;25.57;14.53;;;;;;;-2.65;89.41;98844.84;6295265;28;20248;-44
2022/12/17 19:17:07;;;;;;;51.83;28.60;;;;;;;-2.61;89.05;98849.13;6293507;28;20531;-45
2022/12/17 19:20:10;;;;;;;141.87;85.57;;;;;;;-2.57;88.53;98861.13;6294855;28;20252;-44
2022/12/17 19:23:15;;;;;;;26.13;16.07;;;;;;;-2.51;88.80;98870.56;6294009;28;20239;-45
2022/12/17 19:26:20;;;;;;;28.13;15.37;;;;;;;-2.47;87.90;98872.22;6292498;28;20225;-44
2022/12/17 19:29:22;;;;;;;25.63;14.83;;;;;;;-2.51;88.22;98876.59;6292717;28;20234;-43
2022/12/17 19:32:24;;;;;;;30.13;16.27;;;;;;;-2.51;88.13;98871.41;6297185;28;20320;-44
2022/12/17 19:35:27;;;;;;;26.70;15.60;;;;;;;-2.46;87.68;98879.97;6293515;28;20607;-44
2022/12/17 19:38:30;;;;;;;25.10;14.80;;;;;;;-2.43;87.80;98892.88;6295442;28;20234;-44
2022/12/17 19:41:33;;;;;;;28.73;15.00;;;;;;;-2.41;87.58;98898.91;6292583;28;20323;-45
2022/12/17 19:44:35;;;;;;;47.83;24.30;;;;;;;-2.38;87.82;98895.41;6266019;28;20231;-47
2022/12/17 19:47:38;;;;;;;25.20;14.67;;;;;;;-2.35;87.22;98901.41;6293383;28;20225;-46
2022/12/17 19:50:40;;;;;;;26.20;15.77;;;;;;;-2.34;86.97;98897.94;6293584;28;20318;-49
2022/12/17 19:53:44;;;;;;;24.60;14.33;;;;;;;-2.32;87.33;98908.28;6292005;28;20304;-45
2022/12/17 19:56:46;;;;;;;24.43;14.03;;;;;;;-2.31;86.68;98908.28;6290606;28;20230;-45
2022/12/17 19:59:48;;;;;;;25.80;14.17;;;;;;;-2.32;86.36;98901.38;6291666;28;20229;-44
2022/12/17 20:02:51;;;;;;;22.50;13.17;;;;;;;-2.28;86.44;98908.22;6293215;28;20238;-44
2022/12/17 20:05:54;;;;;;;22.57;13.73;;;;;;;-2.28;86.73;98908.22;6293105;28;20274;-45
2022/12/17 20:09:00;;;;;;;21.53;13.47;;;;;;;-2.27;87.01;98903.91;6290610;28;20596;-43
2022/12/17 20:12:02;;;;;;;24.37;12.77;;;;;;;-2.27;87.09;98922.00;6296515;28;20800;-43
2022/12/17 20:15:05;;;;;;;21.83;12.70;;;;;;;-2.27;86.63;98928.03;6295473;28;20226;-44
2022/12/17 20:18:07;;;;;;;24.03;13.20;;;;;;;-2.27;85.95;98930.63;6279410;28;20308;-44
2022/12/17 20:21:10;;;;;;;23.27;13.80;;;;;;;-2.28;86.30;98931.50;6279187;28;20226;-44
2022/12/17 20:24:13;;;;;;;21.40;12.70;;;;;;;-2.27;86.12;98943.56;6291194;28;20718;-45
2022/12/17 20:27:16;;;;;;;21.10;13.10;;;;;;;-2.25;86.19;98946.97;6276254;28;20222;-44
2022/12/17 20:30:18;;;;;;;19.30;11.80;;;;;;;-2.25;85.88;98943.53;6291387;28;20225;-44
2022/12/17 20:33:20;;;;;;;20.83;11.93;;;;;;;-2.27;85.95;98945.28;6285693;28;20241;-44
2022/12/17 20:36:23;;;;;;;22.37;13.23;;;;;;;-2.28;86.36;98944.41;6292963;28;20253;-44
2022/12/17 20:39:26;;;;;;;20.60;12.27;;;;;;;-2.27;86.28;98958.19;6291837;28;20234;-43
2022/12/17 20:42:30;;;;;;;20.40;12.30;;;;;;;-2.27;86.12;98956.47;6281473;28;20225;-43
2022/12/17 20:45:32;;;;;;;22.73;12.90;;;;;;;-2.26;85.53;98960.78;6290737;28;20699;-44
2022/12/17 20:48:36;;;;;;;22.23;12.20;;;;;;;-2.27;86.25;98961.66;6291544;28;20252;-43
2022/12/17 20:51:39;;;;;;;23.23;13.13;;;;;;;-2.27;86.32;98968.53;6272708;28;20222;-45
2022/12/17 20:54:41;;;;;;;22.13;13.07;;;;;;;-2.28;86.84;98970.28;6293847;28;20221;-43
2022/12/17 20:57:44;;;;;;;24.83;13.27;;;;;;;-2.29;86.35;98968.56;6289918;28;20307;-44
2022/12/17 21:00:46;;;;;;;23.20;12.80;;;;;;;-2.28;86.40;98977.16;6293042;28;20229;-44
2022/12/17 21:03:50;;;;;;;22.00;12.63;;;;;;;-2.30;85.99;98971.19;6292053;28;20714;-43
2022/12/17 21:06:53;;;;;;;20.77;12.40;;;;;;;-2.30;85.90;98974.63;6290715;28;20241;-43
2022/12/17 21:09:56;;;;;;;18.93;11.40;;;;;;;-2.28;86.36;98983.19;6292410;28;20606;-45
2022/12/17 21:16:26;;;;;;;19.93;12.23;;;;;;;-2.26;86.35;98986.63;6288464;28;20246;-43
2022/12/17 21:19:28;;;;;;;22.53;12.53;;;;;;;-2.25;86.23;99001.28;6290272;28;20242;-43
2022/12/17 21:22:31;;;;;;;19.10;11.03;;;;;;;-2.23;86.87;99001.28;6289170;28;20644;-45
2022/12/17 21:25:33;;;;;;;18.30;12.47;;;;;;;-2.24;86.78;98999.56;6291047;28;20366;-44
2022/12/17 21:28:37;;;;;;;20.10;13.00;;;;;;;-2.26;86.96;99007.31;6287837;28;20313;-43
2022/12/17 21:31:43;;;;;;;19.20;11.53;;;;;;;-2.27;86.76;99015.06;6292895;28;20230;-43
2022/12/17 21:34:46;;;;;;;21.17;12.73;;;;;;;-2.30;87.11;99020.28;6295310;28;20230;-43
2022/12/17 21:37:48;;;;;;;16.97;11.27;;;;;;;-2.29;87.26;99025.44;6272489;28;20661;-45
2022/12/17 21:40:50;;;;;;;20.87;12.67;;;;;;;-2.27;86.83;99022.84;6296857;28;20739;-43
2022/12/17 21:43:57;;;;;;;20.40;11.80;;;;;;;-2.28;87.07;99018.53;6295472;28;20234;-44
2022/12/17 21:47:00;;;;;;;18.60;10.80;;;;;;;-2.29;87.05;99021.97;6287260;28;20280;-44
2022/12/17 21:50:03;;;;;;;19.27;11.30;;;;;;;-2.32;87.22;99016.84;6291516;28;20234;-43
2022/12/17 21:53:05;;;;;;;19.93;11.20;;;;;;;-2.30;87.44;99017.72;6290792;28;20599;-44
2022/12/17 21:56:13;;;;;;;24.13;12.27;;;;;;;-2.34;87.89;99019.44;6283932;28;20238;-44
2022/12/17 21:59:16;;;;;;;17.43;11.33;;;;;;;-2.33;88.17;99023.75;6290684;28;20705;-43
2022/12/17 22:02:18;;;;;;;16.80;10.83;;;;;;;-2.34;88.55;99028.94;6294386;28;20643;-44
2022/12/17 22:05:20;;;;;;;18.87;10.40;;;;;;;-2.33;88.49;99023.75;6294841;28;20252;-43
2022/12/17 22:08:22;;;;;;;15.80;9.67;;;;;;;-2.32;88.50;99027.19;6293802;28;20597;-44
2022/12/17 22:11:26;;;;;;;20.10;10.87;;;;;;;-2.30;88.55;99030.63;6294360;28;20246;-43
2022/12/17 22:14:29;;;;;;;19.70;11.03;;;;;;;-2.32;88.52;99027.19;6295339;28;20238;-49
2022/12/17 22:17:31;;;;;;;18.27;10.17;;;;;;;-2.32;88.44;99040.13;6292589;28;20342;-43
2022/12/17 22:20:33;;;;;;;21.23;10.93;;;;;;;-2.32;88.51;99037.53;6275997;28;20240;-44
2022/12/17 22:23:37;;;;;;;16.60;9.60;;;;;;;-2.32;87.67;99037.53;6293090;28;20740;-44
2022/12/17 22:26:40;;;;;;;16.97;9.50;;;;;;;-2.33;87.63;99033.22;6294771;28;20709;-43
2022/12/17 22:33:05;;;;;;;14.63;9.33;;;;;;;-2.35;86.92;99035.81;6293544;28;20249;-43
2022/12/17 22:36:19;;;;;;;17.30;9.60;;;;;;;-2.37;86.73;99034.97;6276261;28;20209;-44
2022/12/17 22:39:42;;;;;;;13.60;8.67;;;;;;;-2.38;86.45;99041.00;6291317;28;20218;-43
2022/12/17 22:46:44;;;;;;;18.27;9.33;;;;;;;-2.45;86.07;99039.34;6288434;28;20246;-43
2022/12/17 22:49:47;;;;;;;16.00;9.47;;;;;;;-2.45;86.26;99048.81;6296412;28;20226;-43
2022/12/17 22:52:49;;;;;;;15.37;9.03;;;;;;;-2.47;86.06;99048.81;6294105;28;20746;-43
2022/12/17 22:55:51;;;;;;;12.63;8.00;;;;;;;-2.46;86.05;99057.44;6280959;28;20226;-44
2022/12/17 22:58:55;;;;;;;13.07;7.97;;;;;;;-2.45;85.89;99059.16;6290705;28;20283;-45
2022/12/17 23:01:57;;;;;;;14.77;8.97;;;;;;;-2.44;86.03;99056.56;6293395;28;20279;-46
2022/12/17 23:04:59;;;;;;;13.30;8.43;;;;;;;-2.43;85.95;99062.59;6291060;28;20226;-44
2022/12/17 23:08:01;;;;;;;17.97;9.73;;;;;;;-2.44;85.81;99073.81;6290800;28;20763;-45
2022/12/17 23:11:13;;;;;;;15.27;8.80;;;;;;;-2.45;86.15;99075.53;6293243;28;20366;-45
2022/12/17 23:14:16;;;;;;;12.43;8.23;;;;;;;-2.45;85.70;99057.44;6289796;28;20261;-44
2022/12/17 23:17:18;;;;;;;13.10;8.17;;;;;;;-2.43;85.99;99068.63;6292076;28;20251;-47
2022/12/17 23:20:21;;;;;;;14.33;8.37;;;;;;;-2.42;85.63;99072.06;6293810;28;20332;-45
2022/12/17 23:23:23;;;;;;;13.33;7.97;;;;;;;-2.44;86.28;99074.66;6291612;28;20237;-46
2022/12/17 23:26:34;;;;;;;13.07;8.47;;;;;;;-2.44;86.42;99074.66;6290895;28;20230;-45
2022/12/17 23:29:36;;;;;;;14.10;8.60;;;;;;;-2.44;86.41;99086.72;6291345;28;20320;-45
2022/12/17 23:32:39;;;;;;;17.80;9.23;;;;;;;-2.46;86.41;99080.69;6295073;28;20298;-44
2022/12/17 23:35:41;;;;;;;15.20;8.10;;;;;;;-2.46;86.44;99084.16;6289953;28;20240;-43
2022/12/17 23:38:44;;;;;;;10.70;7.07;;;;;;;-2.47;86.99;99092.75;6292845;28;20680;-44
2022/12/17 23:41:46;;;;;;;16.60;9.37;;;;;;;-2.49;86.85;99089.31;6291464;28;20324;-46
2022/12/17 23:44:48;;;;;;;13.47;9.23;;;;;;;-2.51;86.83;99085.91;6290979;28;20226;-44
2022/12/17 23:47:50;;;;;;;12.33;7.93;;;;;;;-2.54;86.70;99095.41;6290724;28;20226;-44
2022/12/17 23:50:52;;;;;;;12.00;7.17;;;;;;;-2.56;86.95;99095.41;6293007;28;20230;-43
2022/12/17 23:53:54;;;;;;;13.00;7.47;;;;;;;-2.57;86.95;99101.44;6289135;28;20229;-44
2022/12/17 23:56:56;;;;;;;13.33;7.67;;;;;;;-2.57;87.25;99106.59;6292113;28;20253;-45
2022/12/17 23:59:58;;;;;;;12.47;7.90;;;;;;;-2.56;87.08;99100.56;6292976;28;20298;-43
